Terminal Aerodrome Forecast
Issued by NWS Atlanta, GA

Home | Current Version | Previous Version | Text Only | Print | Product List | Glossary On
Versions: 1 2 3 4 5 6 7 8 9 10 11 12 13 14 15 16 17 18 19 20 21 22 23 24 25 26 27
000
FTUS42 KFFC 272345
TAFCSG
TAF
KCSG 272345Z 2800/2824 10010G18KT P6SM VCSH BKN025
     FM280200 09010G20KT 4SM SHRA BR OVC018
     FM280900 09011G18KT 3SM BR OVC007
     FM281500 11011G20KT P6SM VCSH OVC012
     FM281800 09014G22KT P6SM SHRA OVC025 PROB30 2818/2824 4SM -TSRA
      BKN015 OVC025CB=

USA.gov is the U.S. government's official web portal to all federal, state and local government web resources and services.